createdAt,value
2023-04-10T00:01:14.704Z,26.10
2023-04-10T00:03:42.935Z,26.00
2023-04-10T00:06:11.261Z,26.10
2023-04-10T00:08:39.493Z,26.40
2023-04-10T00:11:07.895Z,26.60
2023-04-10T00:13:36.159Z,26.60
2023-04-10T00:16:04.521Z,26.50
2023-04-10T00:18:32.770Z,26.30
2023-04-10T00:21:01.113Z,26.10
2023-04-10T00:23:29.172Z,26.10
2023-04-10T00:25:57.481Z,26.10
2023-04-10T00:28:25.682Z,26.40
2023-04-10T00:30:54.320Z,26.50
2023-04-10T00:33:22.674Z,26.50
2023-04-10T00:35:50.975Z,26.40
2023-04-10T00:38:19.384Z,26.20
2023-04-10T00:40:47.512Z,26.10
2023-04-10T00:43:17.520Z,26.10
2023-04-10T00:45:45.973Z,25.90
2023-04-10T00:48:15.304Z,26.00
2023-04-10T00:50:46.313Z,26.20
2023-04-10T00:53:14.681Z,26.30
2023-04-10T00:55:42.997Z,26.30
2023-04-10T00:58:11.157Z,26.30
2023-04-10T01:00:39.489Z,26.20
2023-04-10T01:03:09.601Z,26.00
2023-04-10T01:05:48.232Z,25.80
2023-04-10T01:08:33.513Z,25.70
2023-04-10T01:11:10.778Z,25.80
2023-04-10T01:13:55.854Z,26.10
2023-04-10T01:16:43.827Z,26.20
2023-04-10T01:19:42.409Z,26.10
2023-04-10T01:22:14.723Z,25.90
2023-04-10T01:24:44.297Z,25.80
2023-04-10T01:27:57.140Z,25.60
2023-04-10T01:30:25.339Z,25.60
2023-04-10T01:32:59.701Z,25.50
2023-04-10T01:35:31.106Z,25.60
2023-04-10T01:38:02.234Z,25.70
2023-04-10T01:40:32.261Z,25.90
2023-04-10T01:43:03.235Z,25.70
2023-04-10T01:45:43.457Z,25.60
2023-04-10T01:48:12.742Z,25.50
2023-04-10T01:50:41.783Z,25.50
2023-04-10T01:53:10.826Z,25.60
2023-04-10T01:55:39.518Z,25.60
2023-04-10T01:58:10.131Z,25.50
2023-04-10T02:00:40.870Z,25.80
2023-04-10T02:03:10.748Z,25.50
2023-04-10T02:06:19.434Z,25.10
2023-04-10T02:09:18.609Z,25.30
2023-04-10T02:12:02.412Z,25.10
2023-04-10T02:14:33.373Z,25.20
2023-04-10T02:17:03.137Z,25.50
2023-04-10T02:19:33.609Z,25.80
2023-04-10T02:22:02.451Z,25.90
2023-04-10T02:24:30.871Z,25.70
2023-04-10T02:26:59.130Z,25.50
2023-04-10T02:29:27.360Z,25.40
2023-04-10T02:31:55.765Z,25.40
2023-04-10T02:34:23.840Z,25.30
2023-04-10T02:36:52.140Z,25.40
2023-04-10T02:39:20.658Z,25.60
2023-04-10T02:41:52.098Z,25.60
2023-04-10T02:44:20.305Z,25.50
2023-04-10T02:46:48.553Z,25.60
2023-04-10T02:49:16.845Z,25.60
2023-04-10T02:51:45.905Z,25.70
2023-04-10T02:54:14.204Z,25.60
2023-04-10T02:56:44.019Z,25.50
2023-04-10T02:59:13.192Z,25.30
2023-04-10T03:01:41.595Z,25.20
2023-04-10T03:04:10.036Z,25.10
2023-04-10T03:06:40.894Z,25.10
2023-04-10T03:09:09.144Z,25.20
2023-04-10T03:11:37.598Z,25.40
2023-04-10T03:14:05.929Z,25.50
2023-04-10T03:16:34.476Z,25.40
2023-04-10T03:19:05.020Z,25.30
2023-04-10T03:21:33.374Z,25.20
2023-04-10T03:24:01.579Z,25.20
2023-04-10T03:26:29.808Z,25.10
2023-04-10T03:28:58.521Z,25.20
2023-04-10T03:31:26.729Z,25.30
2023-04-10T03:33:58.746Z,25.40
2023-04-10T03:36:27.069Z,25.30
2023-04-10T03:38:55.444Z,25.20
2023-04-10T03:41:25.236Z,25.20
2023-04-10T03:43:54.314Z,25.20
2023-04-10T03:46:23.138Z,25.20
2023-04-10T03:48:52.264Z,25.50
2023-04-10T03:51:21.542Z,25.50
2023-04-10T03:53:51.979Z,25.60
2023-04-10T03:56:20.514Z,25.40
2023-04-10T03:58:48.602Z,25.30
2023-04-10T04:01:17.082Z,25.20
2023-04-10T04:04:02.636Z,25.20
2023-04-10T04:07:09.012Z,25.30
2023-04-10T04:10:02.409Z,25.60
2023-04-10T04:12:51.286Z,25.80
2023-04-10T04:15:26.952Z,25.90
2023-04-10T04:18:13.669Z,25.80
2023-04-10T04:20:46.761Z,25.80
2023-04-10T04:23:38.365Z,25.50
2023-04-10T04:26:13.562Z,25.30
2023-04-10T04:29:08.148Z,25.30
2023-04-10T04:31:44.011Z,25.20
2023-04-10T04:34:18.431Z,25.40
2023-04-10T04:37:04.936Z,25.50
2023-04-10T04:39:33.214Z,25.60
2023-04-10T04:42:33.660Z,25.50
2023-04-10T04:45:15.625Z,25.30
2023-04-10T04:48:02.183Z,25.20
2023-04-10T04:50:51.340Z,25.10
2023-04-10T04:53:39.613Z,25.20
2023-04-10T04:56:28.996Z,25.40
2023-04-10T04:59:23.502Z,25.40
2023-04-10T05:01:59.101Z,25.20
2023-04-10T05:04:56.618Z,25.10
2023-04-10T05:07:52.897Z,25.10
2023-04-10T05:10:59.458Z,25.10
2023-04-10T05:13:50.398Z,25.50
2023-04-10T05:16:45.814Z,25.60
2023-04-10T05:19:32.277Z,25.80
2023-04-10T05:22:25.264Z,25.60
2023-04-10T05:25:11.854Z,25.20
2023-04-10T05:27:58.684Z,25.10
2023-04-10T05:30:49.711Z,25.10
2023-04-10T05:33:38.144Z,25.40
2023-04-10T05:36:36.534Z,25.60
2023-04-10T05:39:17.668Z,25.70
2023-04-10T05:41:57.621Z,25.40
2023-04-10T05:44:45.830Z,25.30
2023-04-10T05:47:35.684Z,25.30
2023-04-10T05:50:23.131Z,25.20
2023-04-10T05:53:14.402Z,25.50
2023-04-10T05:56:17.890Z,25.70
2023-04-10T05:59:04.795Z,25.80
2023-04-10T06:02:02.698Z,25.90
2023-04-10T06:04:31.755Z,25.70
2023-04-10T06:07:02.251Z,25.50
2023-04-10T06:09:33.505Z,25.40
2023-04-10T06:12:01.935Z,25.30
2023-04-10T06:14:31.603Z,25.20
2023-04-10T06:17:00.363Z,25.30
2023-04-10T06:19:28.582Z,25.50
2023-04-10T06:21:58.103Z,25.60
2023-04-10T06:24:26.299Z,25.30
2023-04-10T06:26:56.271Z,25.10
2023-04-10T06:29:25.496Z,25.10
2023-04-10T06:31:53.885Z,25.10
2023-04-10T06:34:22.712Z,25.10
2023-04-10T06:36:58.891Z,25.30
2023-04-10T06:39:27.149Z,25.50
2023-04-10T06:41:55.319Z,25.60
2023-04-10T06:44:35.237Z,25.40
2023-04-10T06:47:03.796Z,25.10
2023-04-10T06:49:32.241Z,25.10
2023-04-10T06:52:00.644Z,25.10
2023-04-10T06:54:29.132Z,25.30
2023-04-10T06:56:57.370Z,25.40
2023-04-10T06:59:25.542Z,25.70
2023-04-10T07:01:53.850Z,25.80
2023-04-10T07:04:21.940Z,25.90
2023-04-10T07:06:50.214Z,26.00
2023-04-10T07:09:18.423Z,26.00
2023-04-10T07:11:46.923Z,26.10
2023-04-10T07:14:15.031Z,26.10
2023-04-10T07:16:43.276Z,26.10
2023-04-10T07:19:11.721Z,26.50
2023-04-10T07:21:39.863Z,26.50
2023-04-10T07:24:08.337Z,26.50
2023-04-10T07:26:36.429Z,26.30
2023-04-10T07:29:04.710Z,26.40
2023-04-10T07:31:32.983Z,26.40
2023-04-10T07:34:02.912Z,26.50
2023-04-10T07:36:31.480Z,26.90
2023-04-10T07:38:59.767Z,27.00
2023-04-10T07:41:28.097Z,27.40
2023-04-10T07:43:56.367Z,27.20
2023-04-10T07:46:24.896Z,27.90
2023-04-10T07:48:53.326Z,28.30
2023-04-10T07:51:22.798Z,29.20
2023-04-10T07:53:51.380Z,29.90
2023-04-10T07:56:21.245Z,30.30
2023-04-10T07:58:49.875Z,30.70
2023-04-10T08:01:17.960Z,31.00
2023-04-10T08:03:47.106Z,32.00
2023-04-10T08:06:15.537Z,32.80
2023-04-10T08:08:43.852Z,33.40
2023-04-10T08:11:29.423Z,34.60
2023-04-10T08:14:00.406Z,35.10
2023-04-10T08:16:30.229Z,35.90
2023-04-10T08:18:59.880Z,37.00
2023-04-10T08:21:29.633Z,36.80
2023-04-10T08:23:59.956Z,36.70
2023-04-10T08:26:29.681Z,36.80
2023-04-10T08:28:59.722Z,37.50
2023-04-10T08:31:29.363Z,37.50
2023-04-10T08:34:00.773Z,38.10
2023-04-10T08:36:29.025Z,39.00
2023-04-10T08:38:57.245Z,39.10
2023-04-10T08:41:27.614Z,39.00
2023-04-10T08:43:57.481Z,38.90
2023-04-10T08:46:26.160Z,38.40
2023-04-10T08:49:05.834Z,39.10
2023-04-10T08:51:46.713Z,39.10
2023-04-10T08:54:21.827Z,38.40
2023-04-10T08:56:54.168Z,39.30
2023-04-10T08:59:22.856Z,39.90
2023-04-10T09:01:51.040Z,40.60
2023-04-10T09:04:19.450Z,40.60
2023-04-10T09:06:48.031Z,38.70
2023-04-10T09:09:16.410Z,39.50
2023-04-10T09:12:04.869Z,39.80
2023-04-10T09:14:34.611Z,39.70
2023-04-10T09:17:23.378Z,40.20
2023-04-10T09:19:54.496Z,40.00
2023-04-10T09:22:36.265Z,40.40
2023-04-10T09:25:05.252Z,39.80
2023-04-10T09:27:37.727Z,39.10
2023-04-10T09:30:07.605Z,39.80
2023-04-10T09:32:43.143Z,39.60
2023-04-10T09:35:16.020Z,38.40
2023-04-10T09:37:46.366Z,38.70
2023-04-10T09:40:22.655Z,36.90
2023-04-10T09:42:51.590Z,35.50
2023-04-10T09:45:19.935Z,34.70
2023-04-10T09:48:14.445Z,35.00
2023-04-10T09:50:42.693Z,35.10
2023-04-10T09:53:19.984Z,34.70
2023-04-10T09:55:50.057Z,34.80
2023-04-10T09:58:18.689Z,34.60
2023-04-10T10:00:48.427Z,33.70
2023-04-10T10:03:18.945Z,33.40
2023-04-10T10:05:52.476Z,33.80
2023-04-10T10:08:22.008Z,33.90
2023-04-10T10:10:54.805Z,33.60
2023-04-10T10:13:30.528Z,33.50
2023-04-10T10:16:07.695Z,33.60
2023-04-10T10:18:58.947Z,33.90
2023-04-10T10:21:28.937Z,33.80
2023-04-10T10:24:01.130Z,34.20
2023-04-10T10:26:32.597Z,34.40
2023-04-10T10:29:05.803Z,34.10
2023-04-10T10:31:38.076Z,34.20
2023-04-10T10:34:07.124Z,34.40
2023-04-10T10:36:38.722Z,34.20
2023-04-10T10:39:27.348Z,34.00
2023-04-10T10:42:13.756Z,34.20
2023-04-10T10:45:08.718Z,34.40
2023-04-10T10:47:44.477Z,34.70
2023-04-10T10:50:12.898Z,34.50
2023-04-10T10:52:45.841Z,34.60
2023-04-10T10:55:23.386Z,34.70
2023-04-10T10:57:56.029Z,34.40
2023-04-10T11:00:26.329Z,34.60
2023-04-10T11:03:23.751Z,34.50
2023-04-10T11:05:56.408Z,34.00
2023-04-10T11:08:33.747Z,34.10
2023-04-10T11:11:13.023Z,34.50
2023-04-10T11:13:51.386Z,34.60
2023-04-10T11:16:21.085Z,34.60
2023-04-10T11:19:02.756Z,34.60
2023-04-10T11:21:35.615Z,34.40
2023-04-10T11:24:05.617Z,34.30
2023-04-10T11:26:36.699Z,34.40
2023-04-10T11:29:13.756Z,34.40
2023-04-10T11:31:42.159Z,34.30
2023-04-10T11:34:11.424Z,34.00
2023-04-10T11:36:41.990Z,33.60
2023-04-10T11:39:17.639Z,33.50
2023-04-10T11:41:48.288Z,33.30
2023-04-10T11:44:34.409Z,33.60
2023-04-10T11:50:30.001Z,34.10
2023-04-10T11:52:58.170Z,34.20
2023-04-10T11:55:38.294Z,34.20
2023-04-10T11:58:22.840Z,34.30
2023-04-10T12:01:05.149Z,34.30
2023-04-10T12:03:33.455Z,34.50
2023-04-10T12:06:01.622Z,34.80
2023-04-10T12:08:37.818Z,35.00
2023-04-10T12:11:06.610Z,34.70
2023-04-10T12:13:34.780Z,34.50
2023-04-10T12:16:06.916Z,34.30
2023-04-10T12:18:35.816Z,34.50
2023-04-10T12:21:06.141Z,34.40
2023-04-10T12:23:38.475Z,34.60
2023-04-10T12:26:17.878Z,34.30
2023-04-10T12:28:57.303Z,34.10
2023-04-10T12:31:34.532Z,34.20
2023-04-10T12:34:04.326Z,34.20
2023-04-10T12:36:33.078Z,33.90
2023-04-10T12:39:05.849Z,33.80
2023-04-10T12:41:35.598Z,33.80
2023-04-10T12:44:14.621Z,33.90
2023-04-10T12:46:43.662Z,33.80
2023-04-10T12:49:13.964Z,33.90
2023-04-10T12:51:52.795Z,34.00
2023-04-10T12:54:35.247Z,33.90
2023-04-10T12:57:04.393Z,33.70
2023-04-10T12:59:33.016Z,33.60
2023-04-10T13:02:01.298Z,33.50
2023-04-10T13:04:31.067Z,33.80
2023-04-10T13:06:59.415Z,34.00
2023-04-10T13:09:27.575Z,34.20
2023-04-10T13:11:55.802Z,33.70
2023-04-10T13:14:24.083Z,33.60
2023-04-10T13:16:52.328Z,33.30
2023-04-10T13:19:20.694Z,33.50
2023-04-10T13:21:48.794Z,33.70
2023-04-10T13:24:17.085Z,34.00
2023-04-10T13:26:45.298Z,33.90
2023-04-10T13:29:16.385Z,33.70
2023-04-10T13:31:44.761Z,33.50
2023-04-10T13:34:12.909Z,33.40
2023-04-10T13:36:41.386Z,33.30
2023-04-10T13:39:09.675Z,33.60
2023-04-10T13:41:37.988Z,33.70
2023-04-10T13:44:06.151Z,33.70
2023-04-10T13:46:34.469Z,33.50
2023-04-10T13:49:02.794Z,33.50
2023-04-10T13:51:31.180Z,33.30
2023-04-10T13:53:59.461Z,33.30
2023-04-10T13:56:27.714Z,33.50
2023-04-10T13:58:58.874Z,33.40
2023-04-10T14:01:27.184Z,33.40
2023-04-10T14:03:55.542Z,33.20
2023-04-10T14:06:23.824Z,32.90
2023-04-10T14:08:51.938Z,32.90
2023-04-10T14:11:20.782Z,33.10
2023-04-10T14:13:48.976Z,33.10
2023-04-10T14:16:17.259Z,33.30
2023-04-10T14:18:45.488Z,33.30
2023-04-10T14:21:13.731Z,33.10
2023-04-10T14:23:42.722Z,33.10
2023-04-10T14:26:11.025Z,33.10
2023-04-10T14:28:39.282Z,33.10
2023-04-10T14:31:08.298Z,33.00
2023-04-10T14:33:36.559Z,33.30
2023-04-10T14:36:05.191Z,33.40
2023-04-10T14:38:33.657Z,33.30
2023-04-10T14:41:01.741Z,33.30
2023-04-10T14:43:29.909Z,33.40
2023-04-10T14:45:58.292Z,33.30
2023-04-10T14:48:26.460Z,33.20
2023-04-10T14:50:54.936Z,33.20
2023-04-10T14:53:23.188Z,33.30
2023-04-10T14:55:51.482Z,33.00
2023-04-10T14:58:19.654Z,32.60
2023-04-10T15:00:48.007Z,32.70
2023-04-10T15:03:16.377Z,32.60
2023-04-10T15:05:44.544Z,32.80
2023-04-10T15:08:12.762Z,33.00
2023-04-10T15:10:41.057Z,32.90
2023-04-10T15:13:09.162Z,32.70
2023-04-10T15:15:37.690Z,32.50
2023-04-10T15:18:06.180Z,32.60
2023-04-10T15:20:34.334Z,32.90
2023-04-10T15:23:02.721Z,33.20
2023-04-10T15:25:33.034Z,33.50
2023-04-10T15:28:02.014Z,33.40
2023-04-10T15:30:31.666Z,33.10
2023-04-10T15:33:00.305Z,33.10
2023-04-10T15:35:28.447Z,33.00
2023-04-10T15:37:57.488Z,33.00
2023-04-10T15:40:25.901Z,33.00
2023-04-10T15:42:54.129Z,33.10
2023-04-10T15:45:22.398Z,33.00
2023-04-10T15:47:50.683Z,32.90
2023-04-10T15:50:19.223Z,32.90
2023-04-10T15:52:47.717Z,33.10
2023-04-10T15:55:15.866Z,32.90
2023-04-10T15:57:46.778Z,32.70
2023-04-10T16:00:15.544Z,32.90
2023-04-10T16:02:44.188Z,32.90
2023-04-10T16:05:12.478Z,32.80
2023-04-10T16:07:41.066Z,32.80
2023-04-10T16:10:09.772Z,32.70
2023-04-10T16:12:38.106Z,32.90
2023-04-10T16:15:07.386Z,32.90
2023-04-10T16:17:36.010Z,32.70
2023-04-10T16:20:11.077Z,32.50
2023-04-10T16:22:42.074Z,32.40
2023-04-10T16:25:10.843Z,32.40
2023-04-10T16:27:38.951Z,32.40
2023-04-10T16:30:07.928Z,32.40
2023-04-10T16:32:36.303Z,32.40
2023-04-10T16:35:04.873Z,32.30
2023-04-10T16:37:33.068Z,32.30
2023-04-10T16:40:01.404Z,32.30
2023-04-10T16:42:29.849Z,32.30
2023-04-10T16:44:59.586Z,32.30
2023-04-10T16:47:28.031Z,32.10
2023-04-10T16:49:56.801Z,32.30
2023-04-10T16:52:25.106Z,32.20
2023-04-10T16:54:53.848Z,32.20
2023-04-10T16:57:22.468Z,32.40
2023-04-10T16:59:50.811Z,32.40
2023-04-10T17:02:20.278Z,32.40
2023-04-10T17:04:48.584Z,32.20
2023-04-10T17:07:16.838Z,32.10
2023-04-10T17:09:45.118Z,32.10
2023-04-10T17:12:13.344Z,31.90
2023-04-10T17:14:41.606Z,31.90
2023-04-10T17:17:11.570Z,31.80
2023-04-10T17:19:39.874Z,31.70
2023-04-10T17:22:08.214Z,31.70
2023-04-10T17:24:36.443Z,31.70
2023-04-10T17:27:04.828Z,31.50
2023-04-10T17:29:37.419Z,31.40
2023-04-10T17:32:06.439Z,31.40
2023-04-10T17:34:35.552Z,31.40
2023-04-10T17:37:03.807Z,31.40
2023-04-10T17:39:32.074Z,31.40
2023-04-10T17:42:00.284Z,31.20
2023-04-10T17:44:28.492Z,31.20
2023-04-10T17:46:56.872Z,31.10
2023-04-10T17:49:26.320Z,30.80
2023-04-10T17:51:54.781Z,30.80
2023-04-10T17:54:23.078Z,30.80
2023-04-10T17:56:53.453Z,30.70
2023-04-10T17:59:21.738Z,30.50
2023-04-10T18:01:50.110Z,30.50
2023-04-10T18:04:18.523Z,30.40
2023-04-10T18:06:46.737Z,30.50
2023-04-10T18:09:15.106Z,30.20
2023-04-10T18:11:43.190Z,30.30
2023-04-10T18:14:11.602Z,30.20
2023-04-10T18:16:39.856Z,29.80
2023-04-10T18:19:08.194Z,29.70
2023-04-10T18:21:36.653Z,29.90
2023-04-10T18:24:05.048Z,30.00
2023-04-10T18:26:33.355Z,30.10
2023-04-10T18:29:01.908Z,30.10
2023-04-10T18:31:30.168Z,30.20
2023-04-10T18:34:07.196Z,30.20
2023-04-10T18:36:36.842Z,30.20
2023-04-10T18:39:05.395Z,30.20
2023-04-10T18:41:33.784Z,30.10
2023-04-10T18:44:05.597Z,30.00
2023-04-10T18:46:34.479Z,30.00
2023-04-10T18:49:02.968Z,29.90
2023-04-10T18:51:33.432Z,29.50
2023-04-10T18:54:03.888Z,29.30
2023-04-10T18:56:32.680Z,29.30
2023-04-10T18:59:02.991Z,29.40
2023-04-10T19:01:31.761Z,29.60
2023-04-10T19:04:00.289Z,29.80
2023-04-10T19:06:29.019Z,29.80
2023-04-10T19:08:58.250Z,29.80
2023-04-10T19:11:26.429Z,29.70
2023-04-10T19:13:55.172Z,29.70
2023-04-10T19:16:23.730Z,29.60
2023-04-10T19:18:54.202Z,29.60
2023-04-10T19:21:22.781Z,29.40
2023-04-10T19:23:51.123Z,29.10
2023-04-10T19:26:19.500Z,29.10
2023-04-10T19:28:47.845Z,29.20
2023-04-10T19:31:16.144Z,29.40
2023-04-10T19:33:44.678Z,29.40
2023-04-10T19:36:12.877Z,29.50
2023-04-10T19:38:41.239Z,29.70
2023-04-10T19:41:19.044Z,29.70
2023-04-10T19:43:47.273Z,29.70
2023-04-10T19:46:19.547Z,29.60
2023-04-10T19:48:48.427Z,29.40
2023-04-10T19:51:16.974Z,29.20
2023-04-10T19:53:45.452Z,29.00
2023-04-10T19:56:13.546Z,28.90
2023-04-10T19:58:42.886Z,29.20
2023-04-10T20:01:12.056Z,29.50
2023-04-10T20:03:40.996Z,29.50
2023-04-10T20:06:09.368Z,29.50
2023-04-10T20:08:37.746Z,29.50
2023-04-10T20:11:06.604Z,29.50
2023-04-10T20:13:35.572Z,29.40
2023-04-10T20:16:03.826Z,29.50
2023-04-10T20:18:35.004Z,29.40
2023-04-10T20:21:03.329Z,29.40
2023-04-10T20:23:31.585Z,29.40
2023-04-10T20:25:59.752Z,29.20
2023-04-10T20:28:28.093Z,28.90
2023-04-10T20:30:56.415Z,28.90
2023-04-10T20:33:24.838Z,28.90
2023-04-10T20:35:53.848Z,29.10
2023-04-10T20:38:23.771Z,29.20
2023-04-10T20:40:51.990Z,29.40
2023-04-10T20:43:20.274Z,29.40
2023-04-10T20:45:48.684Z,29.30
2023-04-10T20:48:16.945Z,29.10
2023-04-10T20:50:46.931Z,28.90
2023-04-10T20:53:16.905Z,28.80
2023-04-10T20:55:47.867Z,29.00
2023-04-10T20:58:17.788Z,29.20
2023-04-10T21:00:46.104Z,29.20
2023-04-10T21:03:14.476Z,29.20
2023-04-10T21:05:43.393Z,29.10
2023-04-10T21:08:13.438Z,29.20
2023-04-10T21:13:09.072Z,29.10
2023-04-10T21:15:37.410Z,28.90
2023-04-10T21:20:41.796Z,28.70
2023-04-10T21:23:10.162Z,28.60
2023-04-10T21:25:40.477Z,28.80
2023-04-10T21:28:08.985Z,29.00
2023-04-10T21:30:37.289Z,29.10
2023-04-10T21:33:05.550Z,29.20
2023-04-10T21:35:33.856Z,29.30
2023-04-10T21:38:02.433Z,29.30
2023-04-10T21:40:31.033Z,29.30
2023-04-10T21:42:59.401Z,29.30
2023-04-10T21:45:27.606Z,29.10
2023-04-10T21:47:56.071Z,28.90
2023-04-10T21:50:25.885Z,28.70
2023-04-10T21:52:54.305Z,28.60
2023-04-10T21:55:22.467Z,28.80
2023-04-10T21:57:50.796Z,28.90
2023-04-10T22:00:21.194Z,28.90
2023-04-10T22:02:51.070Z,28.70
2023-04-10T22:05:19.385Z,28.60
2023-04-10T22:07:47.618Z,28.50
2023-04-10T22:10:16.165Z,28.80
2023-04-10T22:12:45.933Z,29.00
2023-04-10T22:15:16.246Z,28.90
2023-04-10T22:17:44.503Z,28.90
2023-04-10T22:20:13.044Z,29.00
2023-04-10T22:22:41.363Z,29.20
2023-04-10T22:25:09.897Z,29.30
2023-04-10T22:27:37.966Z,29.30
2023-04-10T22:30:07.415Z,29.20
2023-04-10T22:32:35.631Z,29.20
2023-04-10T22:35:03.993Z,29.10
2023-04-10T22:37:32.325Z,29.00
2023-04-10T22:40:00.493Z,29.10
2023-04-10T22:42:31.214Z,28.90
2023-04-10T22:45:00.254Z,28.70
2023-04-10T22:47:28.351Z,28.70
2023-04-10T22:49:56.599Z,28.60
2023-04-10T22:52:24.828Z,28.70
2023-04-10T22:54:52.997Z,28.70
2023-04-10T22:57:21.097Z,28.70
2023-04-10T22:59:49.436Z,28.70
2023-04-10T23:02:17.640Z,28.80
2023-04-10T23:04:46.132Z,28.80
2023-04-10T23:07:14.432Z,28.80
2023-04-10T23:09:42.789Z,28.70
2023-04-10T23:12:10.936Z,28.80
2023-04-10T23:14:39.268Z,28.80
2023-04-10T23:18:17.687Z,29.00
2023-04-10T23:20:49.746Z,28.70
2023-04-10T23:23:18.010Z,28.50
2023-04-10T23:25:46.140Z,28.40
2023-04-10T23:28:14.460Z,28.60
2023-04-10T23:30:42.778Z,28.90
2023-04-10T23:33:10.954Z,29.00
2023-04-10T23:35:39.319Z,28.80
2023-04-10T23:38:09.179Z,28.60
2023-04-10T23:40:37.586Z,28.50
2023-04-10T23:43:06.172Z,28.40
2023-04-10T23:45:34.319Z,28.60
2023-04-10T23:48:02.764Z,28.80
2023-04-10T23:50:30.899Z,29.00
2023-04-10T23:52:59.194Z,29.00
2023-04-10T23:55:27.613Z,28.90
2023-04-10T23:57:55.885Z,28.80
